Auxvasse, Missouri
Current Conditions -  °F | °C
As of 7:40 AM on Thursday 18 Dec 2014 (Local Time) from KCOU Reporting Station
Light Snow Light Snow  
Wind Chill: -6°   Ceiling: 2600
Heat Index: -2°   Visibility: 1.2mi
Dew Point: -3°   Wind: 7mph
Humidity: 96%   Direction: 60°ENE
Pressure: 30.25"   Gusts: NA
Location:  39.02°N, 91.9°W
Report Text: KCOU 181340Z 06006KT 1 1/4SM -SN BR BKN026 BKN039 OVC050 M02/M03 A3025 RMK AO2 UPB09E11SNB11 P0001 T10221028
Loading
Personal Weather Stations






























Interactive Weather Map New forecast layout! Learn more

10-Day Weather Forecast

Advertisements
Track Severe Weather on mobile